Airport View

Enter AWOS ICAO identifier for current METAR.

ex. KFNL

KBFD 191810Z AUTO 27011G20KT 2SM -SN OVC017 M08/M12 A2984 RMK AO2 P0000 T10781117

19 Jan 2020 18:42

Frequency: 133.825

Phone: 814-368-2581

Other Area AWOS: KOYM - KOLE - KELZ - KJHW

TAF KBFD 191750Z 1918/2018 28007KT 1SM -SN BKN017 BKN022 OVC027 FM200300 31012KT P6SM VCSH OVC015 FM200900 32007KT P6SM OVC007 FM201200 33006KT P6SM BKN015